sensor_id;sensor_type;location;lat;lon;timestamp;temperature;humidity
15143;DHT22;7672;50.834;6.286;2023-05-31T00:01:06;15.70;99.90
15143;DHT22;7672;50.834;6.286;2023-05-31T00:03:33;15.60;99.90
15143;DHT22;7672;50.834;6.286;2023-05-31T00:06:01;15.80;99.90
15143;DHT22;7672;50.834;6.286;2023-05-31T00:08:28;15.60;99.90
15143;DHT22;7672;50.834;6.286;2023-05-31T00:10:55;15.50;99.90
15143;DHT22;7672;50.834;6.286;2023-05-31T00:13:22;15.50;99.90
15143;DHT22;7672;50.834;6.286;2023-05-31T00:15:50;15.70;99.90
15143;DHT22;7672;50.834;6.286;2023-05-31T00:18:17;15.40;99.90
15143;DHT22;7672;50.834;6.286;2023-05-31T00:20:44;15.40;99.90
15143;DHT22;7672;50.834;6.286;2023-05-31T00:23:11;15.30;99.90
15143;DHT22;7672;50.834;6.286;2023-05-31T00:25:38;15.30;99.90
15143;DHT22;7672;50.834;6.286;2023-05-31T00:28:05;15.70;99.90
15143;DHT22;7672;50.834;6.286;2023-05-31T00:30:33;15.30;99.90
15143;DHT22;7672;50.834;6.286;2023-05-31T00:33:01;15.20;99.90
15143;DHT22;7672;50.834;6.286;2023-05-31T00:35:28;15.20;99.90
15143;DHT22;7672;50.834;6.286;2023-05-31T00:37:55;15.20;99.90
15143;DHT22;7672;50.834;6.286;2023-05-31T00:40:22;15.10;99.90
15143;DHT22;7672;50.834;6.286;2023-05-31T00:42:51;15.20;99.90
15143;DHT22;7672;50.834;6.286;2023-05-31T00:45:18;15.10;99.90
15143;DHT22;7672;50.834;6.286;2023-05-31T00:47:46;15.10;99.90
15143;DHT22;7672;50.834;6.286;2023-05-31T00:50:13;15.10;99.90
15143;DHT22;7672;50.834;6.286;2023-05-31T00:52:45;15.10;99.90
15143;DHT22;7672;50.834;6.286;2023-05-31T00:55:14;15.00;99.90
15143;DHT22;7672;50.834;6.286;2023-05-31T00:57:42;15.20;99.90
15143;DHT22;7672;50.834;6.286;2023-05-31T01:00:10;15.20;99.90
15143;DHT22;7672;50.834;6.286;2023-05-31T01:02:38;14.90;99.90
15143;DHT22;7672;50.834;6.286;2023-05-31T01:05:08;14.90;99.90
15143;DHT22;7672;50.834;6.286;2023-05-31T01:07:36;15.20;99.90
15143;DHT22;7672;50.834;6.286;2023-05-31T01:10:05;14.90;99.90
15143;DHT22;7672;50.834;6.286;2023-05-31T01:13:05;14.80;99.90
15143;DHT22;7672;50.834;6.286;2023-05-31T01:15:45;14.80;99.90
15143;DHT22;7672;50.834;6.286;2023-05-31T01:18:34;14.80;99.90
15143;DHT22;7672;50.834;6.286;2023-05-31T01:21:05;14.70;99.90
15143;DHT22;7672;50.834;6.286;2023-05-31T01:24:06;14.70;99.90
15143;DHT22;7672;50.834;6.286;2023-05-31T01:26:52;14.70;99.90
15143;DHT22;7672;50.834;6.286;2023-05-31T01:29:27;14.60;99.90
15143;DHT22;7672;50.834;6.286;2023-05-31T01:31:57;14.60;99.90
15143;DHT22;7672;50.834;6.286;2023-05-31T01:34:27;14.60;99.90
15143;DHT22;7672;50.834;6.286;2023-05-31T01:36:54;14.60;99.90
15143;DHT22;7672;50.834;6.286;2023-05-31T01:39:22;14.70;99.90
15143;DHT22;7672;50.834;6.286;2023-05-31T01:41:50;14.60;99.90
15143;DHT22;7672;50.834;6.286;2023-05-31T01:44:19;14.50;99.90
15143;DHT22;7672;50.834;6.286;2023-05-31T01:46:47;14.60;99.90
15143;DHT22;7672;50.834;6.286;2023-05-31T01:49:15;14.60;99.90
15143;DHT22;7672;50.834;6.286;2023-05-31T01:51:45;14.50;99.90
15143;DHT22;7672;50.834;6.286;2023-05-31T01:54:16;14.40;99.90
15143;DHT22;7672;50.834;6.286;2023-05-31T01:56:43;14.40;99.90
15143;DHT22;7672;50.834;6.286;2023-05-31T01:59:13;14.40;99.90
15143;DHT22;7672;50.834;6.286;2023-05-31T02:01:43;14.30;99.90
15143;DHT22;7672;50.834;6.286;2023-05-31T02:04:11;14.30;99.90
15143;DHT22;7672;50.834;6.286;2023-05-31T02:06:38;14.20;99.90
15143;DHT22;7672;50.834;6.286;2023-05-31T02:09:06;14.20;99.90
15143;DHT22;7672;50.834;6.286;2023-05-31T02:11:33;14.30;99.90
15143;DHT22;7672;50.834;6.286;2023-05-31T02:14:02;14.10;99.90
15143;DHT22;7672;50.834;6.286;2023-05-31T02:16:29;14.10;99.90
15143;DHT22;7672;50.834;6.286;2023-05-31T02:18:56;14.50;99.90
15143;DHT22;7672;50.834;6.286;2023-05-31T02:21:25;14.00;99.90
15143;DHT22;7672;50.834;6.286;2023-05-31T02:23:52;14.00;99.90
15143;DHT22;7672;50.834;6.286;2023-05-31T02:26:19;14.30;99.90
15143;DHT22;7672;50.834;6.286;2023-05-31T02:28:46;13.90;99.90
15143;DHT22;7672;50.834;6.286;2023-05-31T02:31:13;13.90;99.90
15143;DHT22;7672;50.834;6.286;2023-05-31T02:33:41;13.80;99.90
15143;DHT22;7672;50.834;6.286;2023-05-31T02:36:09;13.80;99.90
15143;DHT22;7672;50.834;6.286;2023-05-31T02:38:38;14.00;99.90
15143;DHT22;7672;50.834;6.286;2023-05-31T02:41:06;13.70;99.90
15143;DHT22;7672;50.834;6.286;2023-05-31T02:43:33;13.70;99.90
15143;DHT22;7672;50.834;6.286;2023-05-31T02:46:00;13.70;99.90
15143;DHT22;7672;50.834;6.286;2023-05-31T02:48:30;13.60;99.90
15143;DHT22;7672;50.834;6.286;2023-05-31T02:50:58;13.60;99.90
15143;DHT22;7672;50.834;6.286;2023-05-31T02:53:53;13.60;99.90
15143;DHT22;7672;50.834;6.286;2023-05-31T02:56:24;13.60;99.90
15143;DHT22;7672;50.834;6.286;2023-05-31T02:59:09;13.60;99.90
15143;DHT22;7672;50.834;6.286;2023-05-31T03:02:01;13.50;99.90
15143;DHT22;7672;50.834;6.286;2023-05-31T03:04:54;13.50;99.90
15143;DHT22;7672;50.834;6.286;2023-05-31T03:07:21;13.60;99.90
15143;DHT22;7672;50.834;6.286;2023-05-31T03:09:49;13.40;99.90
15143;DHT22;7672;50.834;6.286;2023-05-31T03:12:16;13.40;99.90
15143;DHT22;7672;50.834;6.286;2023-05-31T03:14:43;13.40;99.90
15143;DHT22;7672;50.834;6.286;2023-05-31T03:17:11;13.50;99.90
15143;DHT22;7672;50.834;6.286;2023-05-31T03:19:38;13.30;99.90
15143;DHT22;7672;50.834;6.286;2023-05-31T03:22:06;13.30;99.90
15143;DHT22;7672;50.834;6.286;2023-05-31T03:24:34;13.30;99.90
15143;DHT22;7672;50.834;6.286;2023-05-31T03:27:01;13.30;99.90
15143;DHT22;7672;50.834;6.286;2023-05-31T03:29:28;13.30;99.90
15143;DHT22;7672;50.834;6.286;2023-05-31T03:31:59;13.30;99.90
15143;DHT22;7672;50.834;6.286;2023-05-31T03:34:26;13.00;99.90
15143;DHT22;7672;50.834;6.286;2023-05-31T03:36:54;13.30;99.90
15143;DHT22;7672;50.834;6.286;2023-05-31T03:39:30;13.50;99.90
15143;DHT22;7672;50.834;6.286;2023-05-31T03:42:00;13.20;99.90
15143;DHT22;7672;50.834;6.286;2023-05-31T03:44:29;13.20;99.90
15143;DHT22;7672;50.834;6.286;2023-05-31T03:46:56;13.20;99.90
15143;DHT22;7672;50.834;6.286;2023-05-31T03:49:24;13.20;99.90
15143;DHT22;7672;50.834;6.286;2023-05-31T03:51:51;13.20;99.90
15143;DHT22;7672;50.834;6.286;2023-05-31T03:54:19;13.20;99.90
15143;DHT22;7672;50.834;6.286;2023-05-31T03:56:47;13.50;99.90
15143;DHT22;7672;50.834;6.286;2023-05-31T03:59:14;13.20;99.90
15143;DHT22;7672;50.834;6.286;2023-05-31T04:01:41;13.30;99.90
15143;DHT22;7672;50.834;6.286;2023-05-31T04:04:08;13.40;99.90
15143;DHT22;7672;50.834;6.286;2023-05-31T04:06:36;13.30;99.90
15143;DHT22;7672;50.834;6.286;2023-05-31T04:09:03;13.40;99.90
15143;DHT22;7672;50.834;6.286;2023-05-31T04:11:33;13.40;99.90
15143;DHT22;7672;50.834;6.286;2023-05-31T04:14:01;13.70;99.90
15143;DHT22;7672;50.834;6.286;2023-05-31T04:16:29;13.70;99.90
15143;DHT22;7672;50.834;6.286;2023-05-31T04:18:56;13.60;99.90
15143;DHT22;7672;50.834;6.286;2023-05-31T04:21:23;13.70;99.90
15143;DHT22;7672;50.834;6.286;2023-05-31T04:23:51;14.20;99.90
15143;DHT22;7672;50.834;6.286;2023-05-31T04:26:19;13.90;99.90
15143;DHT22;7672;50.834;6.286;2023-05-31T04:28:48;14.00;99.90
15143;DHT22;7672;50.834;6.286;2023-05-31T04:31:25;14.00;99.90
15143;DHT22;7672;50.834;6.286;2023-05-31T04:34:15;14.20;99.90
15143;DHT22;7672;50.834;6.286;2023-05-31T04:36:47;14.30;99.90
15143;DHT22;7672;50.834;6.286;2023-05-31T04:39:19;14.50;99.90
15143;DHT22;7672;50.834;6.286;2023-05-31T04:41:50;14.70;99.90
15143;DHT22;7672;50.834;6.286;2023-05-31T04:44:17;14.80;99.90
15143;DHT22;7672;50.834;6.286;2023-05-31T04:46:47;15.00;99.90
15143;DHT22;7672;50.834;6.286;2023-05-31T04:49:15;15.10;99.90
15143;DHT22;7672;50.834;6.286;2023-05-31T04:51:42;15.30;99.90
15143;DHT22;7672;50.834;6.286;2023-05-31T04:54:10;15.50;99.90
15143;DHT22;7672;50.834;6.286;2023-05-31T04:56:37;15.70;99.90
15143;DHT22;7672;50.834;6.286;2023-05-31T04:59:04;15.90;99.90
15143;DHT22;7672;50.834;6.286;2023-05-31T05:01:34;16.10;99.90
15143;DHT22;7672;50.834;6.286;2023-05-31T05:04:06;16.20;99.90
15143;DHT22;7672;50.834;6.286;2023-05-31T05:06:33;16.80;99.90
15143;DHT22;7672;50.834;6.286;2023-05-31T05:09:04;16.50;99.90
15143;DHT22;7672;50.834;6.286;2023-05-31T05:11:32;16.70;99.90
15143;DHT22;7672;50.834;6.286;2023-05-31T05:14:00;16.80;99.90
15143;DHT22;7672;50.834;6.286;2023-05-31T05:16:29;17.00;99.90
15143;DHT22;7672;50.834;6.286;2023-05-31T05:18:56;16.90;99.90
15143;DHT22;7672;50.834;6.286;2023-05-31T05:21:25;17.30;99.90
15143;DHT22;7672;50.834;6.286;2023-05-31T05:23:52;17.40;99.90
15143;DHT22;7672;50.834;6.286;2023-05-31T05:26:19;17.60;99.90
15143;DHT22;7672;50.834;6.286;2023-05-31T05:28:46;17.70;99.90
15143;DHT22;7672;50.834;6.286;2023-05-31T05:31:13;17.90;99.90
15143;DHT22;7672;50.834;6.286;2023-05-31T05:33:44;18.00;99.90
15143;DHT22;7672;50.834;6.286;2023-05-31T05:36:12;18.20;99.90
15143;DHT22;7672;50.834;6.286;2023-05-31T05:38:45;18.40;99.90
15143;DHT22;7672;50.834;6.286;2023-05-31T05:41:12;18.60;99.90
15143;DHT22;7672;50.834;6.286;2023-05-31T05:43:41;18.70;99.90
15143;DHT22;7672;50.834;6.286;2023-05-31T05:46:15;19.00;99.90
15143;DHT22;7672;50.834;6.286;2023-05-31T05:48:42;19.10;99.90
15143;DHT22;7672;50.834;6.286;2023-05-31T05:51:09;19.20;99.90
15143;DHT22;7672;50.834;6.286;2023-05-31T05:53:37;19.50;99.90
15143;DHT22;7672;50.834;6.286;2023-05-31T05:56:05;19.60;99.90
15143;DHT22;7672;50.834;6.286;2023-05-31T05:58:42;19.80;99.90
15143;DHT22;7672;50.834;6.286;2023-05-31T06:01:28;20.10;99.90
15143;DHT22;7672;50.834;6.286;2023-05-31T06:03:56;20.20;99.90
15143;DHT22;7672;50.834;6.286;2023-05-31T06:06:24;20.40;99.90
15143;DHT22;7672;50.834;6.286;2023-05-31T06:08:51;20.60;99.90
15143;DHT22;7672;50.834;6.286;2023-05-31T06:11:21;20.80;99.90
15143;DHT22;7672;50.834;6.286;2023-05-31T06:13:49;21.00;99.90
15143;DHT22;7672;50.834;6.286;2023-05-31T06:16:21;21.00;99.90
15143;DHT22;7672;50.834;6.286;2023-05-31T06:18:48;21.00;99.90
15143;DHT22;7672;50.834;6.286;2023-05-31T06:21:17;21.40;99.90
15143;DHT22;7672;50.834;6.286;2023-05-31T06:23:44;21.30;99.90
15143;DHT22;7672;50.834;6.286;2023-05-31T06:26:11;21.60;99.90
15143;DHT22;7672;50.834;6.286;2023-05-31T06:28:38;21.60;99.90
15143;DHT22;7672;50.834;6.286;2023-05-31T06:31:13;21.80;99.90
15143;DHT22;7672;50.834;6.286;2023-05-31T06:33:40;22.00;99.90
15143;DHT22;7672;50.834;6.286;2023-05-31T06:36:07;22.10;99.90
15143;DHT22;7672;50.834;6.286;2023-05-31T06:38:34;22.20;99.90
15143;DHT22;7672;50.834;6.286;2023-05-31T06:41:02;22.30;99.90
15143;DHT22;7672;50.834;6.286;2023-05-31T06:43:29;22.30;99.90
15143;DHT22;7672;50.834;6.286;2023-05-31T06:45:56;22.40;99.90
15143;DHT22;7672;50.834;6.286;2023-05-31T06:48:42;22.40;99.90
15143;DHT22;7672;50.834;6.286;2023-05-31T06:51:47;22.40;99.90
15143;DHT22;7672;50.834;6.286;2023-05-31T06:54:30;22.50;99.90
15143;DHT22;7672;50.834;6.286;2023-05-31T06:57:02;22.50;99.90
15143;DHT22;7672;50.834;6.286;2023-05-31T06:59:30;22.60;99.90
15143;DHT22;7672;50.834;6.286;2023-05-31T07:01:57;22.50;99.90
15143;DHT22;7672;50.834;6.286;2023-05-31T07:04:24;22.80;99.90
15143;DHT22;7672;50.834;6.286;2023-05-31T07:06:53;22.80;99.90
15143;DHT22;7672;50.834;6.286;2023-05-31T07:09:20;23.10;99.90
15143;DHT22;7672;50.834;6.286;2023-05-31T07:11:53;23.10;99.90
15143;DHT22;7672;50.834;6.286;2023-05-31T07:14:21;23.20;99.90
15143;DHT22;7672;50.834;6.286;2023-05-31T07:16:48;23.40;99.90
15143;DHT22;7672;50.834;6.286;2023-05-31T07:19:16;23.60;99.90
15143;DHT22;7672;50.834;6.286;2023-05-31T07:21:43;23.70;99.90
15143;DHT22;7672;50.834;6.286;2023-05-31T07:24:10;23.80;99.90
15143;DHT22;7672;50.834;6.286;2023-05-31T07:26:37;24.00;99.90
15143;DHT22;7672;50.834;6.286;2023-05-31T07:29:04;24.20;99.90
15143;DHT22;7672;50.834;6.286;2023-05-31T07:31:31;24.40;99.90
15143;DHT22;7672;50.834;6.286;2023-05-31T07:33:58;24.60;99.90
15143;DHT22;7672;50.834;6.286;2023-05-31T07:36:25;24.90;99.90
15143;DHT22;7672;50.834;6.286;2023-05-31T07:38:53;25.00;99.90
15143;DHT22;7672;50.834;6.286;2023-05-31T07:41:20;25.20;99.90
15143;DHT22;7672;50.834;6.286;2023-05-31T07:43:47;25.50;99.90
15143;DHT22;7672;50.834;6.286;2023-05-31T07:46:14;25.90;99.90
15143;DHT22;7672;50.834;6.286;2023-05-31T07:48:42;26.40;99.90
15143;DHT22;7672;50.834;6.286;2023-05-31T07:51:09;26.80;99.90
15143;DHT22;7672;50.834;6.286;2023-05-31T07:53:36;27.30;99.90
15143;DHT22;7672;50.834;6.286;2023-05-31T07:56:03;27.80;99.90
15143;DHT22;7672;50.834;6.286;2023-05-31T07:58:30;28.20;99.90
15143;DHT22;7672;50.834;6.286;2023-05-31T08:00:59;28.60;99.90
15143;DHT22;7672;50.834;6.286;2023-05-31T08:03:27;28.90;99.90
15143;DHT22;7672;50.834;6.286;2023-05-31T08:05:54;29.30;99.90
15143;DHT22;7672;50.834;6.286;2023-05-31T08:08:22;29.70;99.90
15143;DHT22;7672;50.834;6.286;2023-05-31T08:10:49;30.10;99.90
15143;DHT22;7672;50.834;6.286;2023-05-31T08:13:16;30.40;99.90
15143;DHT22;7672;50.834;6.286;2023-05-31T08:15:43;30.80;99.90
15143;DHT22;7672;50.834;6.286;2023-05-31T08:18:11;31.20;99.70
15143;DHT22;7672;50.834;6.286;2023-05-31T08:20:38;31.60;98.30
15143;DHT22;7672;50.834;6.286;2023-05-31T08:23:06;31.80;97.40
15143;DHT22;7672;50.834;6.286;2023-05-31T08:25:33;32.00;96.30
15143;DHT22;7672;50.834;6.286;2023-05-31T08:28:00;32.20;95.40
15143;DHT22;7672;50.834;6.286;2023-05-31T08:30:27;32.40;95.60
15143;DHT22;7672;50.834;6.286;2023-05-31T08:32:54;32.70;96.40
15143;DHT22;7672;50.834;6.286;2023-05-31T08:35:21;32.90;94.90
15143;DHT22;7672;50.834;6.286;2023-05-31T08:37:48;33.30;94.10
15143;DHT22;7672;50.834;6.286;2023-05-31T08:40:16;33.50;93.20
15143;DHT22;7672;50.834;6.286;2023-05-31T08:42:55;33.80;92.50
15143;DHT22;7672;50.834;6.286;2023-05-31T08:45:26;34.10;92.00
15143;DHT22;7672;50.834;6.286;2023-05-31T08:48:10;34.40;90.80
15143;DHT22;7672;50.834;6.286;2023-05-31T08:50:42;34.50;91.90
15143;DHT22;7672;50.834;6.286;2023-05-31T08:53:12;34.60;89.60
15143;DHT22;7672;50.834;6.286;2023-05-31T08:55:44;34.60;88.70
15143;DHT22;7672;50.834;6.286;2023-05-31T08:58:13;34.70;87.40
15143;DHT22;7672;50.834;6.286;2023-05-31T09:00:41;34.80;86.90
15143;DHT22;7672;50.834;6.286;2023-05-31T09:03:09;35.00;86.70
15143;DHT22;7672;50.834;6.286;2023-05-31T09:05:36;35.10;85.00
15143;DHT22;7672;50.834;6.286;2023-05-31T09:08:04;35.20;83.10
15143;DHT22;7672;50.834;6.286;2023-05-31T09:10:31;35.20;82.70
15143;DHT22;7672;50.834;6.286;2023-05-31T09:12:58;35.10;80.90
15143;DHT22;7672;50.834;6.286;2023-05-31T09:15:26;35.00;80.90
15143;DHT22;7672;50.834;6.286;2023-05-31T09:17:56;34.80;80.90
15143;DHT22;7672;50.834;6.286;2023-05-31T09:20:31;34.70;80.30
15143;DHT22;7672;50.834;6.286;2023-05-31T09:23:03;34.70;81.10
15143;DHT22;7672;50.834;6.286;2023-05-31T09:25:47;34.70;79.60
15143;DHT22;7672;50.834;6.286;2023-05-31T09:28:21;34.60;80.30
15143;DHT22;7672;50.834;6.286;2023-05-31T09:31:06;34.60;79.70
15143;DHT22;7672;50.834;6.286;2023-05-31T09:33:37;34.50;79.90
15143;DHT22;7672;50.834;6.286;2023-05-31T09:36:09;34.50;78.40
15143;DHT22;7672;50.834;6.286;2023-05-31T09:38:38;34.40;78.70
15143;DHT22;7672;50.834;6.286;2023-05-31T09:41:17;34.40;78.40
15143;DHT22;7672;50.834;6.286;2023-05-31T09:43:47;34.30;79.00
15143;DHT22;7672;50.834;6.286;2023-05-31T09:46:23;34.40;78.30
15143;DHT22;7672;50.834;6.286;2023-05-31T09:48:59;34.50;78.90
15143;DHT22;7672;50.834;6.286;2023-05-31T09:51:31;34.50;77.50
15143;DHT22;7672;50.834;6.286;2023-05-31T09:54:08;34.50;78.40
15143;DHT22;7672;50.834;6.286;2023-05-31T09:56:38;34.50;77.20
15143;DHT22;7672;50.834;6.286;2023-05-31T09:59:07;34.50;75.80
15143;DHT22;7672;50.834;6.286;2023-05-31T10:01:35;34.50;77.00
15143;DHT22;7672;50.834;6.286;2023-05-31T10:04:04;34.50;76.30
15143;DHT22;7672;50.834;6.286;2023-05-31T10:06:32;34.50;78.40
15143;DHT22;7672;50.834;6.286;2023-05-31T10:09:06;34.50;77.40
15143;DHT22;7672;50.834;6.286;2023-05-31T10:11:41;34.60;76.80
15143;DHT22;7672;50.834;6.286;2023-05-31T10:14:24;34.50;77.10
15143;DHT22;7672;50.834;6.286;2023-05-31T10:16:55;34.50;74.40
15143;DHT22;7672;50.834;6.286;2023-05-31T10:19:46;34.50;75.40
15143;DHT22;7672;50.834;6.286;2023-05-31T10:22:17;34.50;75.30
15143;DHT22;7672;50.834;6.286;2023-05-31T10:24:54;34.50;75.50
15143;DHT22;7672;50.834;6.286;2023-05-31T10:27:34;34.40;73.90
15143;DHT22;7672;50.834;6.286;2023-05-31T10:30:05;34.30;74.60
15143;DHT22;7672;50.834;6.286;2023-05-31T10:32:53;34.20;74.70
15143;DHT22;7672;50.834;6.286;2023-05-31T10:35:25;34.20;75.10
15143;DHT22;7672;50.834;6.286;2023-05-31T10:37:54;34.20;74.30
15143;DHT22;7672;50.834;6.286;2023-05-31T10:46:23;34.00;73.70
15143;DHT22;7672;50.834;6.286;2023-05-31T10:48:55;33.90;73.10
15143;DHT22;7672;50.834;6.286;2023-05-31T10:51:44;33.80;73.30
15143;DHT22;7672;50.834;6.286;2023-05-31T10:54:25;33.70;73.00
15143;DHT22;7672;50.834;6.286;2023-05-31T10:56:57;33.60;72.50
15143;DHT22;7672;50.834;6.286;2023-05-31T10:59:26;33.30;72.70
15143;DHT22;7672;50.834;6.286;2023-05-31T11:01:54;33.00;72.00
15143;DHT22;7672;50.834;6.286;2023-05-31T11:04:24;32.80;72.40
15143;DHT22;7672;50.834;6.286;2023-05-31T11:07:09;32.60;73.00
15143;DHT22;7672;50.834;6.286;2023-05-31T11:09:55;32.40;72.10
15143;DHT22;7672;50.834;6.286;2023-05-31T11:12:37;32.20;73.10
15143;DHT22;7672;50.834;6.286;2023-05-31T11:15:12;32.00;72.50
15143;DHT22;7672;50.834;6.286;2023-05-31T11:17:53;31.80;72.90
15143;DHT22;7672;50.834;6.286;2023-05-31T11:20:22;31.60;74.40
15143;DHT22;7672;50.834;6.286;2023-05-31T11:26:14;31.30;75.50
15143;DHT22;7672;50.834;6.286;2023-05-31T11:28:57;31.20;75.20
15143;DHT22;7672;50.834;6.286;2023-05-31T11:34:21;30.90;76.00
15143;DHT22;7672;50.834;6.286;2023-05-31T11:36:51;30.80;75.80
15143;DHT22;7672;50.834;6.286;2023-05-31T11:39:19;30.80;75.00
15143;DHT22;7672;50.834;6.286;2023-05-31T11:41:47;30.70;75.20
15143;DHT22;7672;50.834;6.286;2023-05-31T11:44:19;30.60;74.80
15143;DHT22;7672;50.834;6.286;2023-05-31T11:47:20;30.60;76.80
15143;DHT22;7672;50.834;6.286;2023-05-31T11:49:52;30.50;76.30
15143;DHT22;7672;50.834;6.286;2023-05-31T11:52:20;30.50;75.40
15143;DHT22;7672;50.834;6.286;2023-05-31T11:54:48;30.50;73.60
15143;DHT22;7672;50.834;6.286;2023-05-31T11:57:16;30.40;76.50
15143;DHT22;7672;50.834;6.286;2023-05-31T11:59:44;30.30;73.30
15143;DHT22;7672;50.834;6.286;2023-05-31T12:02:11;30.20;72.60
15143;DHT22;7672;50.834;6.286;2023-05-31T12:04:41;30.20;74.60
15143;DHT22;7672;50.834;6.286;2023-05-31T12:07:16;30.10;76.40
15143;DHT22;7672;50.834;6.286;2023-05-31T12:09:49;30.00;72.60
15143;DHT22;7672;50.834;6.286;2023-05-31T12:12:17;29.90;73.10
15143;DHT22;7672;50.834;6.286;2023-05-31T12:14:53;29.80;72.70
15143;DHT22;7672;50.834;6.286;2023-05-31T12:17:21;29.80;75.70
15143;DHT22;7672;50.834;6.286;2023-05-31T12:19:49;29.80;74.60
15143;DHT22;7672;50.834;6.286;2023-05-31T12:22:16;29.70;75.00
15143;DHT22;7672;50.834;6.286;2023-05-31T12:24:51;29.60;75.10
15143;DHT22;7672;50.834;6.286;2023-05-31T12:27:19;29.50;72.90
15143;DHT22;7672;50.834;6.286;2023-05-31T12:30:01;29.40;73.50
15143;DHT22;7672;50.834;6.286;2023-05-31T12:32:31;29.30;73.20
15143;DHT22;7672;50.834;6.286;2023-05-31T12:35:06;29.20;74.40
15143;DHT22;7672;50.834;6.286;2023-05-31T12:37:39;29.10;75.50
15143;DHT22;7672;50.834;6.286;2023-05-31T12:40:14;28.90;74.00
15143;DHT22;7672;50.834;6.286;2023-05-31T12:42:42;28.90;74.40
15143;DHT22;7672;50.834;6.286;2023-05-31T12:45:10;28.80;73.30
15143;DHT22;7672;50.834;6.286;2023-05-31T12:47:37;28.70;75.10
15143;DHT22;7672;50.834;6.286;2023-05-31T12:50:08;28.60;75.30
15143;DHT22;7672;50.834;6.286;2023-05-31T12:52:37;28.60;76.70
15143;DHT22;7672;50.834;6.286;2023-05-31T12:55:08;28.60;77.50
15143;DHT22;7672;50.834;6.286;2023-05-31T12:57:37;28.50;76.80
15143;DHT22;7672;50.834;6.286;2023-05-31T13:00:06;28.50;77.50
15143;DHT22;7672;50.834;6.286;2023-05-31T13:02:39;28.50;76.40
15143;DHT22;7672;50.834;6.286;2023-05-31T13:05:07;28.60;80.00
15143;DHT22;7672;50.834;6.286;2023-05-31T13:07:35;28.50;78.70
15143;DHT22;7672;50.834;6.286;2023-05-31T13:10:03;28.50;77.70
15143;DHT22;7672;50.834;6.286;2023-05-31T13:12:37;28.60;78.60
15143;DHT22;7672;50.834;6.286;2023-05-31T13:15:04;28.50;81.00
15143;DHT22;7672;50.834;6.286;2023-05-31T13:17:32;28.60;78.60
15143;DHT22;7672;50.834;6.286;2023-05-31T13:20:00;28.60;79.60
15143;DHT22;7672;50.834;6.286;2023-05-31T13:22:38;28.60;79.30
15143;DHT22;7672;50.834;6.286;2023-05-31T13:25:07;28.60;79.00
15143;DHT22;7672;50.834;6.286;2023-05-31T13:27:35;28.60;78.40
15143;DHT22;7672;50.834;6.286;2023-05-31T13:30:02;28.60;79.30
15143;DHT22;7672;50.834;6.286;2023-05-31T13:32:30;28.50;79.50
15143;DHT22;7672;50.834;6.286;2023-05-31T13:34:57;28.50;78.40
15143;DHT22;7672;50.834;6.286;2023-05-31T13:37:28;28.40;78.80
15143;DHT22;7672;50.834;6.286;2023-05-31T13:39:55;28.40;79.90
15143;DHT22;7672;50.834;6.286;2023-05-31T13:42:22;28.40;80.00
15143;DHT22;7672;50.834;6.286;2023-05-31T13:44:51;28.40;81.00
15143;DHT22;7672;50.834;6.286;2023-05-31T13:47:18;28.40;80.00
15143;DHT22;7672;50.834;6.286;2023-05-31T13:49:45;28.30;79.80
15143;DHT22;7672;50.834;6.286;2023-05-31T13:52:12;28.20;82.20
15143;DHT22;7672;50.834;6.286;2023-05-31T13:54:41;28.10;80.70
15143;DHT22;7672;50.834;6.286;2023-05-31T13:57:08;28.10;81.70
15143;DHT22;7672;50.834;6.286;2023-05-31T13:59:36;28.10;81.20
15143;DHT22;7672;50.834;6.286;2023-05-31T14:02:03;28.00;82.20
15143;DHT22;7672;50.834;6.286;2023-05-31T14:04:30;28.00;82.10
15143;DHT22;7672;50.834;6.286;2023-05-31T14:06:58;28.00;80.60
15143;DHT22;7672;50.834;6.286;2023-05-31T14:09:25;28.00;80.00
15143;DHT22;7672;50.834;6.286;2023-05-31T14:11:53;27.90;82.40
15143;DHT22;7672;50.834;6.286;2023-05-31T14:14:21;27.90;80.90
15143;DHT22;7672;50.834;6.286;2023-05-31T14:16:48;27.90;80.80
15143;DHT22;7672;50.834;6.286;2023-05-31T14:19:15;27.80;82.00
15143;DHT22;7672;50.834;6.286;2023-05-31T14:21:42;27.70;81.00
15143;DHT22;7672;50.834;6.286;2023-05-31T14:24:10;27.70;81.50
15143;DHT22;7672;50.834;6.286;2023-05-31T14:26:37;27.60;81.80
15143;DHT22;7672;50.834;6.286;2023-05-31T14:29:04;27.50;80.60
15143;DHT22;7672;50.834;6.286;2023-05-31T14:31:33;27.40;80.80
15143;DHT22;7672;50.834;6.286;2023-05-31T14:34:04;27.40;81.50
15143;DHT22;7672;50.834;6.286;2023-05-31T14:36:31;27.30;82.50
15143;DHT22;7672;50.834;6.286;2023-05-31T14:38:59;27.30;82.70
15143;DHT22;7672;50.834;6.286;2023-05-31T14:41:26;27.40;84.30
15143;DHT22;7672;50.834;6.286;2023-05-31T14:43:56;27.30;82.30
15143;DHT22;7672;50.834;6.286;2023-05-31T14:46:23;27.40;83.00
15143;DHT22;7672;50.834;6.286;2023-05-31T14:48:50;27.30;83.00
15143;DHT22;7672;50.834;6.286;2023-05-31T14:51:20;27.30;82.10
15143;DHT22;7672;50.834;6.286;2023-05-31T14:53:47;27.30;83.70
15143;DHT22;7672;50.834;6.286;2023-05-31T14:56:14;27.20;82.90
15143;DHT22;7672;50.834;6.286;2023-05-31T14:58:44;27.20;82.30
15143;DHT22;7672;50.834;6.286;2023-05-31T15:01:14;27.20;82.30
15143;DHT22;7672;50.834;6.286;2023-05-31T15:03:42;27.20;82.40
15143;DHT22;7672;50.834;6.286;2023-05-31T15:06:09;27.20;83.20
15143;DHT22;7672;50.834;6.286;2023-05-31T15:08:36;27.20;82.60
15143;DHT22;7672;50.834;6.286;2023-05-31T15:11:03;27.10;83.00
15143;DHT22;7672;50.834;6.286;2023-05-31T15:13:30;27.10;82.40
15143;DHT22;7672;50.834;6.286;2023-05-31T15:15:57;27.10;83.30
15143;DHT22;7672;50.834;6.286;2023-05-31T15:18:25;27.10;82.40
15143;DHT22;7672;50.834;6.286;2023-05-31T15:20:52;27.00;83.30
15143;DHT22;7672;50.834;6.286;2023-05-31T15:23:20;27.00;84.10
15143;DHT22;7672;50.834;6.286;2023-05-31T15:25:47;27.00;84.90
15143;DHT22;7672;50.834;6.286;2023-05-31T15:28:14;27.00;84.00
15143;DHT22;7672;50.834;6.286;2023-05-31T15:30:41;27.00;84.00
15143;DHT22;7672;50.834;6.286;2023-05-31T15:33:09;27.00;84.10
15143;DHT22;7672;50.834;6.286;2023-05-31T15:35:36;26.90;83.50
15143;DHT22;7672;50.834;6.286;2023-05-31T15:38:03;26.90;83.20
15143;DHT22;7672;50.834;6.286;2023-05-31T15:40:30;26.90;83.20
15143;DHT22;7672;50.834;6.286;2023-05-31T15:42:57;26.80;82.50
15143;DHT22;7672;50.834;6.286;2023-05-31T15:45:24;26.80;83.20
15143;DHT22;7672;50.834;6.286;2023-05-31T15:47:51;26.80;83.30
15143;DHT22;7672;50.834;6.286;2023-05-31T15:50:18;26.80;82.90
15143;DHT22;7672;50.834;6.286;2023-05-31T15:52:45;26.70;84.50
15143;DHT22;7672;50.834;6.286;2023-05-31T15:55:12;26.70;83.20
15143;DHT22;7672;50.834;6.286;2023-05-31T15:57:39;26.70;83.20
15143;DHT22;7672;50.834;6.286;2023-05-31T16:00:07;26.70;84.00
15143;DHT22;7672;50.834;6.286;2023-05-31T16:02:37;26.70;84.50
15143;DHT22;7672;50.834;6.286;2023-05-31T16:05:05;26.70;83.70
15143;DHT22;7672;50.834;6.286;2023-05-31T16:07:42;26.60;83.80
15143;DHT22;7672;50.834;6.286;2023-05-31T16:10:10;26.60;84.30
15143;DHT22;7672;50.834;6.286;2023-05-31T16:12:40;26.60;84.00
15143;DHT22;7672;50.834;6.286;2023-05-31T16:15:09;26.60;83.20